createdAt,value
2023-05-10T00:00:15.133Z,56.54
2023-05-10T00:01:14.921Z,38.52
2023-05-10T00:02:14.977Z,51.20
2023-05-10T00:03:15.081Z,47.07
2023-05-10T00:04:15.058Z,44.43
2023-05-10T00:05:14.896Z,42.10
2023-05-10T00:06:14.877Z,48.90
2023-05-10T00:07:14.898Z,38.88
2023-05-10T00:08:14.888Z,45.20
2023-05-10T00:09:14.866Z,49.03
2023-05-10T00:10:14.985Z,55.91
2023-05-10T00:11:14.843Z,48.20
2023-05-10T00:12:14.857Z,57.32
2023-05-10T00:13:14.883Z,48.90
2023-05-10T00:14:14.819Z,46.30
2023-05-10T00:15:14.804Z,41.96
2023-05-10T00:16:14.838Z,55.21
2023-05-10T00:17:14.819Z,50.12
2023-05-10T00:18:14.775Z,41.69
2023-05-10T00:19:14.792Z,48.90
2023-05-10T00:20:14.986Z,61.78
2023-05-10T00:21:14.787Z,57.83
2023-05-10T00:22:14.773Z,45.62
2023-05-10T00:23:14.742Z,52.32
2023-05-10T00:24:14.727Z,41.12
2023-05-10T00:25:14.718Z,50.95
2023-05-10T00:26:14.747Z,59.83
2023-05-10T00:27:14.707Z,52.96
2023-05-10T00:28:14.697Z,45.62
2023-05-10T00:29:14.689Z,57.57
2023-05-10T00:30:14.866Z,48.54
2023-05-10T00:31:14.697Z,56.12
2023-05-10T00:32:14.737Z,55.20
2023-05-10T00:33:14.664Z,42.75
2023-05-10T00:34:14.649Z,40.12
2023-05-10T00:35:14.671Z,40.28
2023-05-10T00:36:14.669Z,46.83
2023-05-10T00:37:14.634Z,56.29
2023-05-10T00:38:14.617Z,60.67
2023-05-10T00:39:14.606Z,59.00
2023-05-10T00:40:14.868Z,44.58
2023-05-10T00:41:14.604Z,48.51
2023-05-10T00:42:14.587Z,48.11
2023-05-10T00:43:14.587Z,42.72
2023-05-10T00:44:14.577Z,50.48
2023-05-10T00:45:14.596Z,44.72
2023-05-10T00:46:14.567Z,46.62
2023-05-10T00:47:14.564Z,45.75
2023-05-10T00:48:14.549Z,61.15
2023-05-10T00:49:14.532Z,52.19
2023-05-10T00:50:14.865Z,55.20
2023-05-10T00:51:14.509Z,52.78
2023-05-10T00:52:14.506Z,54.54
2023-05-10T00:53:14.505Z,45.68
2023-05-10T00:54:14.520Z,46.82
2023-05-10T00:55:14.509Z,53.96
2023-05-10T00:56:14.470Z,45.96
2023-05-10T00:57:14.463Z,47.95
2023-05-10T00:58:14.457Z,60.82
2023-05-10T00:59:14.476Z,48.23
2023-05-10T01:00:14.543Z,44.70
2023-05-10T01:01:14.487Z,49.64
2023-05-10T01:02:14.452Z,44.51
2023-05-10T01:03:14.472Z,56.03
2023-05-10T01:04:14.436Z,55.19
2023-05-10T01:05:14.447Z,46.90
2023-05-10T01:06:14.397Z,47.07
2023-05-10T01:07:14.385Z,61.50
2023-05-10T01:08:14.397Z,65.02
2023-05-10T01:09:14.403Z,48.20
2023-05-10T01:10:14.444Z,45.38
2023-05-10T01:11:14.359Z,44.01
2023-05-10T01:12:14.370Z,50.71
2023-05-10T01:13:14.443Z,55.93
2023-05-10T01:14:14.345Z,54.90
2023-05-10T01:15:14.327Z,46.67
2023-05-10T01:16:14.347Z,51.02
2023-05-10T01:17:14.309Z,51.68
2023-05-10T01:18:14.324Z,62.06
2023-05-10T01:19:14.291Z,64.93
2023-05-10T01:20:14.421Z,64.51
2023-05-10T01:21:14.277Z,60.58
2023-05-10T01:22:14.272Z,62.27
2023-05-10T01:23:14.292Z,63.00
2023-05-10T01:24:14.249Z,59.47
2023-05-10T01:25:14.249Z,63.30
2023-05-10T01:26:14.237Z,59.33
2023-05-10T01:27:14.282Z,53.56
2023-05-10T01:28:14.241Z,54.56
2023-05-10T01:29:14.218Z,59.73
2023-05-10T01:30:16.174Z,57.64
2023-05-10T01:31:15.222Z,55.03
2023-05-10T01:32:14.215Z,53.91
2023-05-10T01:33:14.182Z,51.68
2023-05-10T01:34:14.181Z,55.89
2023-05-10T01:35:14.173Z,58.80
2023-05-10T01:36:14.152Z,54.38
2023-05-10T01:37:14.188Z,49.49
2023-05-10T01:38:14.197Z,54.60
2023-05-10T01:39:14.140Z,51.82
2023-05-10T01:40:14.260Z,51.43
2023-05-10T01:41:14.133Z,49.71
2023-05-10T01:42:14.131Z,44.65
2023-05-10T01:43:14.100Z,47.32
2023-05-10T01:44:14.088Z,49.94
2023-05-10T01:45:14.081Z,49.74
2023-05-10T01:46:14.135Z,44.17
2023-05-10T01:47:14.073Z,42.93
2023-05-10T01:48:14.060Z,40.90
2023-05-10T01:49:14.054Z,57.28
2023-05-10T01:50:14.278Z,60.73
2023-05-10T01:51:14.068Z,48.20
2023-05-10T01:52:14.028Z,59.66
2023-05-10T01:53:14.055Z,45.68
2023-05-10T01:54:14.015Z,46.90
2023-05-10T01:55:14.027Z,56.88
2023-05-10T01:56:14.010Z,49.18
2023-05-10T01:57:13.985Z,50.48
2023-05-10T01:58:13.973Z,48.17
2023-05-10T01:59:13.970Z,55.11
2023-05-10T02:00:14.112Z,45.79
2023-05-10T02:01:14.057Z,42.80
2023-05-10T02:02:13.942Z,47.65
2023-05-10T02:03:13.971Z,43.44
2023-05-10T02:04:13.948Z,48.84
2023-05-10T02:05:13.952Z,54.35
2023-05-10T02:06:13.916Z,57.42
2023-05-10T02:07:13.900Z,52.72
2023-05-10T02:08:13.904Z,49.43
2023-05-10T02:09:13.880Z,45.96
2023-05-10T02:10:14.135Z,45.00
2023-05-10T02:11:13.888Z,52.48
2023-05-10T02:12:13.874Z,48.29
2023-05-10T02:13:13.917Z,45.42
2023-05-10T02:14:13.875Z,53.59
2023-05-10T02:15:13.859Z,54.34
2023-05-10T02:16:13.861Z,48.38
2023-05-10T02:17:13.830Z,42.91
2023-05-10T02:18:13.815Z,43.27
2023-05-10T02:19:13.839Z,57.28
2023-05-10T02:20:13.919Z,46.43
2023-05-10T02:21:13.800Z,49.03
2023-05-10T02:22:13.787Z,51.62
2023-05-10T02:23:13.784Z,40.90
2023-05-10T02:24:13.793Z,36.13
2023-05-10T02:25:13.766Z,50.33
2023-05-10T02:26:13.853Z,46.44
2023-05-10T02:27:13.746Z,43.49
2023-05-10T02:28:13.771Z,54.78
2023-05-10T02:29:13.763Z,51.56
2023-05-10T02:30:13.765Z,50.63
2023-05-10T02:31:13.738Z,54.86
2023-05-10T02:32:13.826Z,50.36
2023-05-10T02:33:13.725Z,49.61
2023-05-10T02:34:13.688Z,52.54
2023-05-10T02:35:13.682Z,52.84
2023-05-10T02:36:13.677Z,52.85
2023-05-10T02:37:13.665Z,52.48
2023-05-10T02:38:13.687Z,48.06
2023-05-10T02:39:13.670Z,55.48
2023-05-10T02:40:13.664Z,51.92
2023-05-10T02:41:13.636Z,50.48
2023-05-10T02:42:13.649Z,54.67
2023-05-10T02:43:13.647Z,46.56
2023-05-10T02:44:13.609Z,57.12
2023-05-10T02:45:13.597Z,49.39
2023-05-10T02:46:13.645Z,53.62
2023-05-10T02:47:13.646Z,49.73
2023-05-10T02:48:13.615Z,55.13
2023-05-10T02:49:13.574Z,58.15
2023-05-10T02:50:13.645Z,61.15
2023-05-10T02:51:13.564Z,63.04
2023-05-10T02:52:13.582Z,66.25
2023-05-10T02:53:13.547Z,63.30
2023-05-10T02:54:13.538Z,60.27
2023-05-10T02:55:13.520Z,55.66
2023-05-10T02:56:13.519Z,55.75
2023-05-10T02:57:13.534Z,60.94
2023-05-10T02:58:13.504Z,59.44
2023-05-10T02:59:13.507Z,54.76
2023-05-10T03:00:13.546Z,48.82
2023-05-10T03:01:13.536Z,52.23
2023-05-10T03:02:13.486Z,56.94
2023-05-10T03:03:13.466Z,52.02
2023-05-10T03:04:13.496Z,47.54
2023-05-10T03:05:13.452Z,52.16
2023-05-10T03:06:13.498Z,50.05
2023-05-10T03:07:13.429Z,53.50
2023-05-10T03:08:13.423Z,60.57
2023-05-10T03:09:13.414Z,56.94
2023-05-10T03:10:13.445Z,60.83
2023-05-10T03:11:13.439Z,53.64
2023-05-10T03:12:13.398Z,54.43
2023-05-10T03:13:13.404Z,51.92
2023-05-10T03:14:13.396Z,52.49
2023-05-10T03:15:13.397Z,58.35
2023-05-10T03:16:13.452Z,60.02
2023-05-10T03:17:13.352Z,54.61
2023-05-10T03:18:13.342Z,54.26
2023-05-10T03:19:13.339Z,57.48
2023-05-10T03:20:13.335Z,57.50
2023-05-10T03:21:13.341Z,55.24
2023-05-10T03:22:13.317Z,57.16
2023-05-10T03:23:13.302Z,57.66
2023-05-10T03:24:13.301Z,58.91
2023-05-10T03:25:13.307Z,59.51
2023-05-10T03:26:13.301Z,58.05
2023-05-10T03:27:13.272Z,56.58
2023-05-10T03:28:13.264Z,58.77
2023-05-10T03:29:13.258Z,58.91
2023-05-10T03:30:13.267Z,56.81
2023-05-10T03:31:13.244Z,60.70
2023-05-10T03:32:13.238Z,61.96
2023-05-10T03:33:13.221Z,60.42
2023-05-10T03:34:13.205Z,59.15
2023-05-10T03:35:13.230Z,57.06
2023-05-10T03:36:13.193Z,51.85
2023-05-10T03:37:13.188Z,60.18
2023-05-10T03:38:13.201Z,61.26
2023-05-10T03:39:13.197Z,59.14
2023-05-10T03:40:13.187Z,57.25
2023-05-10T03:41:13.156Z,55.84
2023-05-10T03:42:13.155Z,61.41
2023-05-10T03:43:13.156Z,58.84
2023-05-10T03:44:13.192Z,62.48
2023-05-10T03:45:13.125Z,64.54
2023-05-10T03:46:13.160Z,60.57
2023-05-10T03:47:13.104Z,62.54
2023-05-10T03:48:13.120Z,57.15
2023-05-10T03:49:13.121Z,52.82
2023-05-10T03:50:13.088Z,58.30
2023-05-10T03:51:13.077Z,60.33
2023-05-10T03:52:13.071Z,60.54
2023-05-10T03:53:13.053Z,62.36
2023-05-10T03:54:14.080Z,57.20
2023-05-10T03:55:13.047Z,56.07
2023-05-10T03:56:13.042Z,58.98
2023-05-10T03:57:13.030Z,59.57
2023-05-10T03:58:13.058Z,60.26
2023-05-10T03:59:13.055Z,58.19
2023-05-10T04:00:13.002Z,56.38
2023-05-10T04:01:13.005Z,57.72
2023-05-10T04:02:13.017Z,57.95
2023-05-10T04:03:13.071Z,54.88
2023-05-10T04:04:12.991Z,56.76
2023-05-10T04:05:12.968Z,56.27
2023-05-10T04:06:13.081Z,61.06
2023-05-10T04:07:12.976Z,55.16
2023-05-10T04:08:12.970Z,58.70
2023-05-10T04:09:12.935Z,57.03
2023-05-10T04:10:12.964Z,59.31
2023-05-10T04:11:12.926Z,55.32
2023-05-10T04:12:12.967Z,60.39
2023-05-10T04:13:12.927Z,58.57
2023-05-10T04:14:12.898Z,59.51
2023-05-10T04:15:12.899Z,58.46
2023-05-10T04:16:12.876Z,57.64
2023-05-10T04:17:12.991Z,57.08
2023-05-10T04:18:12.869Z,59.35
2023-05-10T04:19:12.854Z,60.95
2023-05-10T04:20:12.867Z,57.91
2023-05-10T04:21:12.836Z,61.46
2023-05-10T04:22:12.858Z,58.92
2023-05-10T04:23:12.829Z,56.91
2023-05-10T04:24:13.572Z,61.06
2023-05-10T04:25:12.808Z,61.21
2023-05-10T04:26:12.849Z,60.63
2023-05-10T04:27:12.813Z,55.60
2023-05-10T04:28:12.786Z,58.88
2023-05-10T04:29:12.775Z,59.77
2023-05-10T04:30:12.797Z,58.92
2023-05-10T04:31:12.884Z,56.70
2023-05-10T04:32:12.754Z,60.49
2023-05-10T04:33:12.742Z,62.37
2023-05-10T04:34:12.739Z,57.30
2023-05-10T04:35:12.726Z,61.62
2023-05-10T04:36:12.740Z,62.43
2023-05-10T04:37:12.722Z,62.31
2023-05-10T04:38:12.699Z,61.47
2023-05-10T04:39:12.693Z,60.94
2023-05-10T04:40:12.698Z,60.81
2023-05-10T04:41:12.723Z,64.32
2023-05-10T04:42:12.676Z,61.41
2023-05-10T04:43:12.666Z,61.14
2023-05-10T04:44:12.654Z,63.89
2023-05-10T04:45:12.646Z,59.31
2023-05-10T04:46:12.726Z,60.50
2023-05-10T04:47:12.869Z,57.86
2023-05-10T04:48:13.619Z,60.41
2023-05-10T04:49:12.618Z,58.79
2023-05-10T04:50:12.628Z,61.08
2023-05-10T04:51:12.622Z,59.52
2023-05-10T04:52:12.588Z,60.80
2023-05-10T04:53:14.649Z,61.20
2023-05-10T04:54:12.597Z,62.11
2023-05-10T04:55:12.599Z,62.96
2023-05-10T04:56:12.555Z,61.91
2023-05-10T04:57:12.556Z,58.30
2023-05-10T04:58:12.537Z,63.75
2023-05-10T04:59:12.550Z,60.83
2023-05-10T05:00:12.555Z,57.59
2023-05-10T05:01:12.558Z,61.48
2023-05-10T05:02:12.502Z,63.14
2023-05-10T05:03:12.520Z,60.78
2023-05-10T05:04:12.519Z,60.02
2023-05-10T05:05:12.511Z,59.95
2023-05-10T05:06:12.473Z,57.52
2023-05-10T05:07:12.475Z,59.80
2023-05-10T05:08:12.463Z,60.42
2023-05-10T05:09:12.499Z,58.69
2023-05-10T05:10:12.460Z,61.41
2023-05-10T05:11:12.433Z,58.72
2023-05-10T05:12:12.427Z,60.19
2023-05-10T05:13:12.501Z,60.43
2023-05-10T05:14:12.439Z,62.04
2023-05-10T05:15:12.412Z,62.37
2023-05-10T05:16:12.595Z,60.34
2023-05-10T05:17:12.390Z,61.32
2023-05-10T05:18:12.443Z,61.57
2023-05-10T05:19:12.409Z,58.50
2023-05-10T05:20:12.370Z,60.04
2023-05-10T05:21:12.362Z,60.61
2023-05-10T05:22:12.356Z,61.11
2023-05-10T05:23:12.398Z,58.04
2023-05-10T05:24:12.364Z,55.06
2023-05-10T05:25:12.327Z,57.22
2023-05-10T05:26:12.320Z,55.35
2023-05-10T05:27:12.310Z,56.69
2023-05-10T05:28:12.329Z,61.33
2023-05-10T05:29:12.293Z,59.39
2023-05-10T05:30:12.307Z,57.18
2023-05-10T05:31:12.298Z,59.41
2023-05-10T05:32:12.381Z,60.52
2023-05-10T05:33:12.296Z,60.29
2023-05-10T05:34:12.255Z,59.22
2023-05-10T05:35:12.297Z,58.46
2023-05-10T05:36:12.249Z,56.63
2023-05-10T05:37:12.257Z,58.47
2023-05-10T05:38:12.267Z,57.40
2023-05-10T05:39:12.216Z,57.39
2023-05-10T05:40:12.231Z,58.48
2023-05-10T05:41:12.195Z,55.13
2023-05-10T05:42:12.208Z,59.64
2023-05-10T05:43:12.179Z,57.95
2023-05-10T05:44:12.170Z,59.09
2023-05-10T05:45:12.160Z,55.13
2023-05-10T05:46:12.182Z,56.11
2023-05-10T05:47:12.177Z,56.69
2023-05-10T05:48:12.137Z,58.74
2023-05-10T05:49:12.128Z,58.19
2023-05-10T05:50:12.203Z,58.79
2023-05-10T05:51:12.154Z,56.91
2023-05-10T05:52:12.160Z,57.74
2023-05-10T05:53:12.101Z,55.92
2023-05-10T05:54:12.166Z,56.22
2023-05-10T05:55:12.081Z,56.46
2023-05-10T05:56:12.106Z,59.95
2023-05-10T05:57:12.117Z,59.23
2023-05-10T05:58:12.056Z,57.70
2023-05-10T05:59:12.079Z,58.38
2023-05-10T06:00:12.054Z,57.19
2023-05-10T06:01:12.089Z,59.94
2023-05-10T06:02:12.093Z,59.87
2023-05-10T06:03:12.072Z,57.71
2023-05-10T06:04:12.049Z,54.94
2023-05-10T06:05:12.008Z,56.41
2023-05-10T06:06:12.026Z,57.10
2023-05-10T06:07:11.992Z,55.02
2023-05-10T06:08:11.986Z,61.16
2023-05-10T06:09:11.973Z,56.26
2023-05-10T06:10:12.002Z,58.15
2023-05-10T06:11:11.982Z,56.79
2023-05-10T06:12:11.953Z,58.85
2023-05-10T06:13:11.977Z,57.88
2023-05-10T06:14:11.935Z,56.46
2023-05-10T06:15:11.957Z,58.13
2023-05-10T06:16:11.938Z,57.38
2023-05-10T06:17:11.901Z,56.67
2023-05-10T06:18:11.948Z,57.43
2023-05-10T06:19:11.894Z,56.89
2023-05-10T06:20:11.923Z,57.41
2023-05-10T06:21:11.880Z,58.74
2023-05-10T06:22:11.902Z,60.26
2023-05-10T06:23:11.874Z,54.77
2023-05-10T06:24:11.885Z,57.95
2023-05-10T06:25:11.880Z,60.03
2023-05-10T06:26:11.841Z,59.38
2023-05-10T06:27:11.833Z,57.21
2023-05-10T06:28:11.833Z,58.51
2023-05-10T06:29:11.841Z,57.14
2023-05-10T06:30:13.370Z,57.19
2023-05-10T06:31:12.853Z,58.17
2023-05-10T06:32:11.796Z,60.07
2023-05-10T06:33:11.824Z,59.66
2023-05-10T06:34:11.808Z,63.24
2023-05-10T06:35:11.938Z,58.43
2023-05-10T06:36:11.769Z,58.03
2023-05-10T06:37:11.762Z,53.96
2023-05-10T06:38:11.751Z,58.95
2023-05-10T06:39:11.764Z,58.29
2023-05-10T06:40:11.749Z,57.54
2023-05-10T06:41:11.733Z,56.72
2023-05-10T06:42:11.716Z,60.22
2023-05-10T06:43:11.731Z,56.10
2023-05-10T06:44:11.747Z,54.20
2023-05-10T06:45:11.690Z,55.75
2023-05-10T06:46:11.730Z,58.01
2023-05-10T06:47:11.670Z,57.60
2023-05-10T06:48:11.754Z,57.01
2023-05-10T06:49:11.657Z,56.21
2023-05-10T06:50:11.645Z,57.90
2023-05-10T06:51:11.642Z,57.94
2023-05-10T06:52:11.642Z,59.11
2023-05-10T06:53:11.652Z,54.52
2023-05-10T06:54:11.621Z,57.66
2023-05-10T06:55:11.616Z,56.29
2023-05-10T06:56:11.604Z,55.44
2023-05-10T06:57:23.199Z,55.40
2023-05-10T06:58:13.632Z,52.95
2023-05-10T06:59:11.624Z,57.84
2023-05-10T07:00:11.582Z,56.33
2023-05-10T07:01:11.697Z,53.96
2023-05-10T07:02:11.670Z,55.32
2023-05-10T07:03:11.631Z,54.24
2023-05-10T07:04:11.538Z,55.91
2023-05-10T07:05:11.525Z,56.06
2023-05-10T07:06:21.609Z,54.63
2023-05-10T07:07:13.541Z,53.76
2023-05-10T07:08:11.578Z,53.92
2023-05-10T07:09:11.498Z,54.12
2023-05-10T07:10:11.510Z,55.65
2023-05-10T07:11:11.526Z,55.87
2023-05-10T07:12:13.426Z,54.55
2023-05-10T07:13:11.583Z,54.87
2023-05-10T07:14:11.468Z,56.26
2023-05-10T07:15:11.463Z,57.36
2023-05-10T07:16:11.544Z,55.87
2023-05-10T07:17:11.499Z,56.23
2023-05-10T07:18:11.534Z,56.38
2023-05-10T07:19:11.417Z,55.55
2023-05-10T07:20:11.408Z,51.07
2023-05-10T07:21:11.466Z,52.87
2023-05-10T07:22:11.414Z,56.07
2023-05-10T07:23:11.386Z,57.70
2023-05-10T07:24:11.375Z,51.90
2023-05-10T07:25:11.377Z,55.18
2023-05-10T07:26:11.381Z,54.78
2023-05-10T07:27:11.357Z,53.51
2023-05-10T07:28:11.367Z,53.23
2023-05-10T07:29:11.338Z,56.97
2023-05-10T07:30:11.326Z,51.94
2023-05-10T07:31:11.351Z,53.76
2023-05-10T07:32:11.330Z,53.09
2023-05-10T07:33:11.406Z,53.68
2023-05-10T07:34:11.300Z,47.95
2023-05-10T07:35:11.299Z,55.05
2023-05-10T07:36:11.316Z,53.17
2023-05-10T07:37:11.283Z,53.18
2023-05-10T07:38:11.271Z,52.55
2023-05-10T07:39:12.688Z,54.37
2023-05-10T07:40:11.277Z,52.65
2023-05-10T07:41:11.263Z,51.76
2023-05-10T07:42:11.237Z,56.56
2023-05-10T07:43:11.241Z,53.02
2023-05-10T07:44:11.218Z,53.57
2023-05-10T07:45:11.233Z,50.56
2023-05-10T07:46:11.291Z,53.20
2023-05-10T07:47:11.196Z,56.54
2023-05-10T07:48:11.188Z,57.82
2023-05-10T07:49:11.210Z,54.29
2023-05-10T07:50:11.242Z,53.44
2023-05-10T07:51:11.172Z,53.92
2023-05-10T07:52:11.160Z,57.19
2023-05-10T07:53:11.166Z,50.20
2023-05-10T07:54:11.188Z,51.03
2023-05-10T07:55:11.130Z,55.06
2023-05-10T07:56:11.122Z,53.38
2023-05-10T07:57:11.108Z,54.69
2023-05-10T07:58:11.139Z,55.09
2023-05-10T07:59:12.813Z,53.79
2023-05-10T08:00:11.096Z,52.38
2023-05-10T08:01:11.088Z,51.50
2023-05-10T08:02:11.114Z,50.53
2023-05-10T08:03:11.175Z,53.81
2023-05-10T08:04:11.134Z,55.40
2023-05-10T08:05:11.065Z,54.88
2023-05-10T08:06:11.039Z,54.27
2023-05-10T08:07:11.059Z,54.04
2023-05-10T08:08:11.060Z,56.13
2023-05-10T08:09:11.061Z,53.03
2023-05-10T08:10:11.024Z,55.79
2023-05-10T08:11:11.019Z,55.12
2023-05-10T08:12:10.993Z,53.63
2023-05-10T08:13:11.013Z,55.49
2023-05-10T08:14:10.999Z,57.90
2023-05-10T08:15:10.974Z,54.73
2023-05-10T08:16:10.988Z,53.53
2023-05-10T08:17:10.958Z,53.01
2023-05-10T08:18:10.980Z,53.97
2023-05-10T08:19:11.034Z,54.76
2023-05-10T08:20:10.939Z,57.78
2023-05-10T08:21:10.927Z,53.82
2023-05-10T08:22:10.926Z,57.06
2023-05-10T08:23:10.926Z,56.48
2023-05-10T08:24:10.899Z,57.85
2023-05-10T08:25:10.901Z,53.08
2023-05-10T08:26:43.505Z,54.51
2023-05-10T08:27:10.896Z,56.87
2023-05-10T08:28:11.974Z,52.77
2023-05-10T08:29:10.860Z,53.62
2023-05-10T08:30:10.851Z,54.08
2023-05-10T08:31:10.882Z,53.86
2023-05-10T08:32:10.865Z,56.33
2023-05-10T08:33:10.884Z,55.44
2023-05-10T08:34:10.828Z,55.78
2023-05-10T08:35:10.823Z,53.60
2023-05-10T08:36:10.823Z,53.12
2023-05-10T08:37:10.822Z,50.70
2023-05-10T08:38:10.802Z,50.97
2023-05-10T08:39:22.777Z,51.37
2023-05-10T08:40:12.773Z,57.23
2023-05-10T08:41:10.775Z,54.74
2023-05-10T08:42:10.806Z,52.81
2023-05-10T08:43:10.750Z,53.39
2023-05-10T08:44:10.755Z,56.86
2023-05-10T08:45:10.735Z,55.80
2023-05-10T08:46:10.841Z,55.30
2023-05-10T08:47:10.811Z,53.44
2023-05-10T08:48:10.768Z,48.55
2023-05-10T08:49:10.704Z,53.96
2023-05-10T08:50:10.715Z,52.09
2023-05-10T08:51:10.726Z,53.27
2023-05-10T08:52:10.690Z,55.99
2023-05-10T08:53:10.672Z,57.00
2023-05-10T08:54:10.671Z,53.50
2023-05-10T08:55:10.660Z,54.49
2023-05-10T08:56:10.698Z,53.51
2023-05-10T08:57:10.643Z,53.78
2023-05-10T08:58:10.640Z,52.86
2023-05-10T08:59:10.644Z,52.09
2023-05-10T09:00:10.618Z,54.34
2023-05-10T09:01:10.664Z,54.33
2023-05-10T09:02:10.611Z,52.08
2023-05-10T09:03:10.700Z,53.76
2023-05-10T09:04:10.701Z,55.66
2023-05-10T09:05:10.669Z,56.24
2023-05-10T09:06:10.603Z,53.66
2023-05-10T09:07:10.567Z,53.86
2023-05-10T09:08:10.566Z,54.46
2023-05-10T09:09:10.565Z,56.63
2023-05-10T09:10:10.587Z,55.83
2023-05-10T09:11:10.559Z,55.81
2023-05-10T09:12:10.537Z,53.04
2023-05-10T09:13:10.526Z,54.01
2023-05-10T09:14:10.534Z,51.85
2023-05-10T09:15:10.544Z,50.39
2023-05-10T09:16:21.394Z,58.08
2023-05-10T09:17:12.567Z,48.34
2023-05-10T09:18:10.503Z,51.28
2023-05-10T09:19:10.516Z,53.55
2023-05-10T09:20:10.500Z,54.82
2023-05-10T09:21:10.471Z,50.81
2023-05-10T09:22:10.449Z,53.23
2023-05-10T09:23:10.447Z,51.38
2023-05-10T09:24:10.462Z,51.25
2023-05-10T09:25:10.477Z,51.34
2023-05-10T09:26:10.424Z,51.55
2023-05-10T09:27:10.412Z,53.17
2023-05-10T09:28:10.415Z,51.54
2023-05-10T09:29:10.433Z,54.83
2023-05-10T09:30:10.402Z,56.19
2023-05-10T09:31:10.440Z,51.94
2023-05-10T09:32:10.381Z,53.84
2023-05-10T09:33:10.384Z,53.41
2023-05-10T09:34:10.393Z,50.14
2023-05-10T09:35:10.391Z,52.07
2023-05-10T09:36:10.353Z,53.29
2023-05-10T09:37:10.340Z,52.95
2023-05-10T09:38:10.339Z,48.11
2023-05-10T09:39:10.364Z,53.14
2023-05-10T09:40:10.321Z,48.76
2023-05-10T09:41:10.308Z,53.99
2023-05-10T09:42:10.308Z,50.79
2023-05-10T09:43:10.320Z,53.05
2023-05-10T09:44:10.307Z,53.45
2023-05-10T09:45:10.285Z,56.02
2023-05-10T09:46:10.290Z,54.05
2023-05-10T09:47:10.272Z,51.32
2023-05-10T09:48:10.331Z,51.12
2023-05-10T09:49:10.250Z,57.38
2023-05-10T09:50:10.249Z,52.14
2023-05-10T09:51:10.233Z,53.22
2023-05-10T09:52:10.242Z,52.34
2023-05-10T09:53:10.238Z,51.43
2023-05-10T09:54:10.220Z,53.47
2023-05-10T09:55:10.204Z,55.51
2023-05-10T09:56:10.191Z,54.28
2023-05-10T09:57:10.234Z,49.61
2023-05-10T09:58:10.184Z,53.11
2023-05-10T09:59:10.181Z,53.99
2023-05-10T10:00:10.177Z,54.41
2023-05-10T10:01:10.177Z,53.79
2023-05-10T10:02:10.167Z,51.93
2023-05-10T10:03:10.212Z,48.84
2023-05-10T10:04:10.146Z,50.51
2023-05-10T10:05:10.300Z,56.24
2023-05-10T10:06:18.867Z,53.20
2023-05-10T10:07:12.142Z,53.00
2023-05-10T10:08:10.099Z,50.51
2023-05-10T10:09:10.099Z,55.40
2023-05-10T10:10:10.089Z,57.26
2023-05-10T10:11:10.104Z,54.15
2023-05-10T10:12:10.093Z,52.62
2023-05-10T10:13:10.074Z,53.03
2023-05-10T10:14:10.063Z,54.74
2023-05-10T10:15:10.053Z,52.31
2023-05-10T10:16:10.095Z,55.03
2023-05-10T10:17:10.170Z,53.58
2023-05-10T10:18:10.068Z,53.44
2023-05-10T10:19:10.018Z,52.79
2023-05-10T10:20:12.013Z,53.07
2023-05-10T10:21:11.028Z,52.27
2023-05-10T10:22:09.991Z,55.61
2023-05-10T10:23:10.004Z,56.16
2023-05-10T10:24:09.986Z,53.29
2023-05-10T10:25:09.998Z,55.47
2023-05-10T10:26:10.006Z,55.14
2023-05-10T10:27:09.965Z,59.06
2023-05-10T10:28:09.969Z,51.71
2023-05-10T10:29:09.942Z,54.84
2023-05-10T10:30:09.961Z,55.11
2023-05-10T10:31:09.941Z,57.11
2023-05-10T10:32:09.914Z,58.60
2023-05-10T10:33:20.252Z,55.33
2023-05-10T10:34:11.914Z,56.70
2023-05-10T10:35:09.918Z,55.69
2023-05-10T10:36:09.885Z,54.93
2023-05-10T10:37:09.909Z,56.79
2023-05-10T10:38:09.872Z,56.88
2023-05-10T10:39:09.892Z,56.68
2023-05-10T10:40:09.882Z,56.27
2023-05-10T10:41:09.848Z,58.28
2023-05-10T10:42:09.844Z,57.01
2023-05-10T10:43:09.834Z,55.03
2023-05-10T10:44:09.855Z,57.07
2023-05-10T10:45:09.809Z,55.67
2023-05-10T10:46:09.806Z,55.00
2023-05-10T10:47:09.872Z,55.80
2023-05-10T10:48:09.813Z,54.99
2023-05-10T10:49:09.832Z,53.76
2023-05-10T10:50:09.788Z,58.62
2023-05-10T10:51:10.857Z,55.05
2023-05-10T10:52:09.763Z,57.91
2023-05-10T10:53:09.799Z,56.75
2023-05-10T10:54:09.829Z,54.96
2023-05-10T10:55:09.738Z,53.23
2023-05-10T10:56:09.738Z,55.98
2023-05-10T10:57:09.734Z,55.69
2023-05-10T10:58:09.750Z,53.99
2023-05-10T10:59:09.756Z,55.84
2023-05-10T11:00:09.719Z,56.95
2023-05-10T11:01:09.744Z,56.51
2023-05-10T11:02:09.690Z,54.32
2023-05-10T11:03:09.791Z,54.17
2023-05-10T11:04:09.766Z,55.41
2023-05-10T11:05:09.673Z,56.58
2023-05-10T11:06:09.674Z,56.25
2023-05-10T11:07:09.660Z,54.93
2023-05-10T11:08:09.672Z,58.82
2023-05-10T11:09:09.639Z,55.91
2023-05-10T11:10:09.625Z,50.73
2023-05-10T11:11:09.633Z,55.63
2023-05-10T11:12:09.644Z,51.69
2023-05-10T11:13:09.629Z,52.16
2023-05-10T11:14:09.602Z,58.56
2023-05-10T11:15:09.597Z,57.00
2023-05-10T11:16:09.632Z,56.95
2023-05-10T11:17:09.625Z,56.83
2023-05-10T11:18:09.598Z,56.81
2023-05-10T11:19:09.766Z,57.45
2023-05-10T11:20:09.579Z,58.07
2023-05-10T11:21:09.546Z,56.47
2023-05-10T11:22:09.556Z,58.83
2023-05-10T11:23:09.533Z,59.47
2023-05-10T11:24:09.520Z,57.69
2023-05-10T11:25:09.516Z,60.04
2023-05-10T11:26:09.509Z,57.26
2023-05-10T11:27:09.587Z,55.62
2023-05-10T11:28:09.509Z,56.23
2023-05-10T11:29:09.503Z,56.64
2023-05-10T11:30:09.485Z,54.41
2023-05-10T11:31:09.516Z,56.97
2023-05-10T11:32:09.487Z,54.53
2023-05-10T11:33:09.484Z,58.14
2023-05-10T11:34:09.474Z,58.82
2023-05-10T11:35:09.438Z,56.77
2023-05-10T11:36:09.456Z,68.05
2023-05-10T11:37:09.457Z,56.33
2023-05-10T11:38:09.439Z,52.03
2023-05-10T11:39:09.419Z,59.38
2023-05-10T11:40:09.404Z,57.84
2023-05-10T11:41:09.426Z,56.73
2023-05-10T11:42:09.393Z,57.76
2023-05-10T11:43:09.382Z,54.11
2023-05-10T11:44:09.373Z,56.66
2023-05-10T11:45:09.394Z,55.12
2023-05-10T11:46:09.440Z,54.79
2023-05-10T11:47:09.348Z,54.36
2023-05-10T11:48:09.384Z,52.59
2023-05-10T11:49:09.331Z,55.01
2023-05-10T11:50:09.360Z,50.51
2023-05-10T11:51:09.338Z,54.81
2023-05-10T11:52:09.314Z,56.34
2023-05-10T11:53:09.311Z,53.47
2023-05-10T11:54:09.331Z,51.26
2023-05-10T11:55:09.314Z,55.73
2023-05-10T11:56:09.314Z,53.78
2023-05-10T11:57:09.280Z,53.27
2023-05-10T11:58:09.265Z,55.80
2023-05-10T11:59:09.368Z,53.07
2023-05-10T12:00:09.291Z,54.53
2023-05-10T12:01:09.243Z,58.33
2023-05-10T12:02:09.229Z,55.23
2023-05-10T12:03:09.291Z,54.89
2023-05-10T12:04:09.388Z,50.62
2023-05-10T12:05:09.285Z,54.33
2023-05-10T12:06:09.198Z,59.32
2023-05-10T12:07:09.185Z,55.84
2023-05-10T12:08:09.175Z,55.81
2023-05-10T12:09:09.246Z,53.07
2023-05-10T12:10:09.177Z,53.92
2023-05-10T12:11:09.156Z,55.41
2023-05-10T12:12:09.151Z,52.87
2023-05-10T12:13:09.150Z,54.13
2023-05-10T12:14:09.175Z,57.20
2023-05-10T12:15:09.131Z,56.87
2023-05-10T12:16:09.148Z,59.15
2023-05-10T12:17:09.113Z,56.81
2023-05-10T12:18:09.130Z,57.50
2023-05-10T12:19:09.231Z,56.12
2023-05-10T12:20:09.085Z,57.47
2023-05-10T12:21:09.083Z,54.71
2023-05-10T12:22:09.092Z,57.65
2023-05-10T12:23:09.106Z,55.08
2023-05-10T12:24:09.114Z,60.73
2023-05-10T12:25:09.054Z,60.65
2023-05-10T12:26:09.062Z,61.49
2023-05-10T12:27:09.094Z,61.99
2023-05-10T12:28:09.090Z,61.84
2023-05-10T12:29:09.045Z,62.94
2023-05-10T12:30:09.030Z,65.32
2023-05-10T12:31:09.022Z,62.00
2023-05-10T12:32:09.130Z,64.07
2023-05-10T12:33:09.201Z,61.56
2023-05-10T12:34:08.993Z,63.37
2023-05-10T12:35:08.999Z,62.56
2023-05-10T12:36:08.976Z,62.54
2023-05-10T12:37:08.959Z,62.38
2023-05-10T12:38:08.972Z,62.31
2023-05-10T12:39:08.948Z,65.95
2023-05-10T12:40:08.949Z,63.45
2023-05-10T12:41:08.973Z,63.40
2023-05-10T12:42:08.968Z,61.93
2023-05-10T12:43:08.932Z,62.42
2023-05-10T12:44:08.908Z,62.82
2023-05-10T12:45:08.891Z,65.35
2023-05-10T12:46:08.984Z,65.01
2023-05-10T12:47:08.914Z,64.33
2023-05-10T12:48:08.944Z,62.77
2023-05-10T12:49:09.747Z,63.11
2023-05-10T12:50:09.866Z,61.37
2023-05-10T12:51:08.856Z,63.00
2023-05-10T12:52:08.875Z,61.92